createdAt,value
2023-03-17T00:00:00.341Z,96763.06
2023-03-17T00:01:03.411Z,96761.44
2023-03-17T00:02:05.116Z,96777.34
2023-03-17T00:03:07.250Z,96782.91
2023-03-17T00:04:13.210Z,96769.94
2023-03-17T00:05:20.925Z,96782.19
2023-03-17T00:06:28.538Z,96769.94
2023-03-17T00:07:30.427Z,96775.25
2023-03-17T00:08:34.065Z,96782.66
2023-03-17T00:09:35.669Z,96776.25
2023-03-17T00:10:37.694Z,96772.53
2023-03-17T00:11:39.238Z,96774.69
2023-03-17T00:12:41.344Z,96761.53
2023-03-17T00:13:44.677Z,96777.63
2023-03-17T00:14:47.052Z,96782.13
2023-03-17T00:15:57.025Z,96782.13
2023-03-17T00:16:58.682Z,96780.34
2023-03-17T00:18:00.282Z,96780.06
2023-03-17T00:19:02.195Z,96779.47
2023-03-17T00:20:05.865Z,96787.16
2023-03-17T00:21:13.191Z,96794.78
2023-03-17T00:22:18.832Z,96782.06
2023-03-17T00:23:23.058Z,96791.59
2023-03-17T00:24:24.645Z,96776.75
2023-03-17T00:25:29.092Z,96747.09
2023-03-17T00:26:31.083Z,96779.22
2023-03-17T00:27:33.100Z,96776.25
2023-03-17T00:28:34.783Z,96779.47
2023-03-17T00:29:36.450Z,96781.53
2023-03-17T00:30:38.788Z,96777.34
2023-03-17T00:31:40.509Z,96772.53
2023-03-17T00:32:42.443Z,96781.00
2023-03-17T00:33:45.559Z,96778.81
2023-03-17T00:34:47.246Z,96786.50
2023-03-17T00:35:48.814Z,96786.22
2023-03-17T00:36:52.057Z,96767.66
2023-03-17T00:37:55.943Z,96766.38
2023-03-17T00:38:58.433Z,96776.69
2023-03-17T00:40:00.610Z,96771.38
2023-03-17T00:41:02.189Z,96784.91
2023-03-17T00:42:04.455Z,96784.72
2023-03-17T00:43:08.329Z,96761.94
2023-03-17T00:44:10.155Z,96784.72
2023-03-17T00:45:12.364Z,96777.84
2023-03-17T00:46:17.300Z,96767.75
2023-03-17T00:47:18.854Z,96775.91
2023-03-17T00:48:22.158Z,96772.25
2023-03-17T00:49:26.297Z,96773.53
2023-03-17T00:50:29.467Z,96780.41
2023-03-17T00:51:31.196Z,96782.56
2023-03-17T00:52:33.385Z,96768.22
2023-03-17T00:53:35.422Z,96788.94
2023-03-17T00:54:37.016Z,96782.56
2023-03-17T00:55:38.647Z,96771.97
2023-03-17T00:56:41.649Z,96768.81
2023-03-17T00:57:43.788Z,96779.41
2023-03-17T00:58:46.618Z,96782.56
2023-03-17T00:59:48.362Z,96779.41
2023-03-17T01:00:49.920Z,96785.72
2023-03-17T01:01:51.714Z,96780.91
2023-03-17T01:02:54.910Z,96782.50
2023-03-17T01:03:57.389Z,96782.97
2023-03-17T01:05:06.207Z,96788.28
2023-03-17T01:06:11.638Z,96778.28
2023-03-17T01:07:14.181Z,96786.16
2023-03-17T01:08:16.848Z,96784.84
2023-03-17T01:09:20.396Z,96778.75
2023-03-17T01:10:25.788Z,96783.78
2023-03-17T01:11:27.386Z,96792.00
2023-03-17T01:12:29.452Z,96788.28
2023-03-17T01:13:30.974Z,96789.06
2023-03-17T01:14:32.522Z,96781.41
2023-03-17T01:15:34.727Z,96793.59
2023-03-17T01:16:36.330Z,96786.69
2023-03-17T01:17:38.136Z,96791.44
2023-03-17T01:18:40.001Z,96782.44
2023-03-17T01:19:41.634Z,96796.75
2023-03-17T01:20:43.809Z,96801.97
2023-03-17T01:21:46.487Z,96796.16
2023-03-17T01:22:48.834Z,96793.22
2023-03-17T01:23:50.402Z,96795.59
2023-03-17T01:24:52.080Z,96785.00
2023-03-17T01:25:54.393Z,96800.91
2023-03-17T01:26:55.906Z,96803.03
2023-03-17T01:27:59.351Z,96802.75
2023-03-17T01:29:00.901Z,96794.03
2023-03-17T01:30:05.954Z,96807.19
2023-03-17T01:31:07.513Z,96799.53
2023-03-17T01:32:09.125Z,96796.59
2023-03-17T01:33:12.984Z,96811.72
2023-03-17T01:34:14.642Z,96798.19
2023-03-17T01:35:16.360Z,96804.56
2023-03-17T01:36:17.930Z,96800.31
2023-03-17T01:37:21.371Z,96807.75
2023-03-17T01:38:23.358Z,96807.75
2023-03-17T01:39:25.549Z,96811.00
2023-03-17T01:40:30.650Z,96818.75
2023-03-17T01:41:37.605Z,96813.66
2023-03-17T01:42:40.084Z,96813.06
2023-03-17T01:43:41.734Z,96807.75
2023-03-17T01:45:27.894Z,96813.66
2023-03-17T01:46:31.731Z,96822.66
2023-03-17T01:47:34.115Z,96802.59
2023-03-17T01:48:40.564Z,96819.59
2023-03-17T01:49:43.191Z,96822.72
2023-03-17T01:50:48.370Z,96817.16
2023-03-17T01:52:14.310Z,96813.72
2023-03-17T01:53:18.043Z,96818.09
2023-03-17T01:54:28.865Z,96827.31
2023-03-17T01:55:30.508Z,96831.28
2023-03-17T01:56:33.020Z,96828.81
2023-03-17T01:57:39.795Z,96819.59
2023-03-17T01:58:41.916Z,96822.31
2023-03-17T01:59:52.306Z,96835.56
2023-03-17T02:00:54.436Z,96833.41
2023-03-17T02:02:01.484Z,96829.09
2023-03-17T02:03:04.317Z,96833.41
2023-03-17T02:04:06.528Z,96823.38
2023-03-17T02:05:11.512Z,96840.34
2023-03-17T02:06:13.132Z,96833.75
2023-03-17T02:07:14.827Z,96840.34
2023-03-17T02:08:16.701Z,96842.44
2023-03-17T02:09:18.654Z,96838.69
2023-03-17T02:10:23.026Z,96834.72
2023-03-17T02:11:24.882Z,96834.47
2023-03-17T02:12:29.022Z,96838.28
2023-03-17T02:13:31.930Z,96846.50
2023-03-17T02:14:34.172Z,96844.13
2023-03-17T02:15:44.457Z,96841.00
2023-03-17T02:16:46.114Z,96846.50
2023-03-17T02:17:48.580Z,96851.28
2023-03-17T02:18:50.116Z,96850.50
2023-03-17T02:19:52.284Z,96847.00
2023-03-17T02:20:53.756Z,96850.75
2023-03-17T02:21:59.620Z,96845.72
2023-03-17T02:23:01.913Z,96841.00
2023-03-17T02:24:08.017Z,96853.94
2023-03-17T02:25:11.216Z,96854.31
2023-03-17T02:26:12.880Z,96864.34
2023-03-17T02:27:19.274Z,96860.03
2023-03-17T02:28:26.058Z,96857.19
2023-03-17T02:29:27.758Z,96858.25
2023-03-17T02:30:29.830Z,96859.88
2023-03-17T02:31:31.772Z,96865.47
2023-03-17T02:32:36.194Z,96870.28
2023-03-17T02:33:38.061Z,96861.47
2023-03-17T02:34:39.945Z,96865.72
2023-03-17T02:35:42.324Z,96868.16
2023-03-17T02:36:44.200Z,96864.19
2023-03-17T02:37:46.993Z,96866.59
2023-03-17T02:38:48.790Z,96868.16
2023-03-17T02:39:50.364Z,96876.06
2023-03-17T02:40:52.575Z,96874.47
2023-03-17T02:41:54.287Z,96875.06
2023-03-17T02:42:56.497Z,96882.78
2023-03-17T02:43:58.075Z,96883.56
2023-03-17T02:45:00.224Z,96881.69
2023-03-17T02:46:02.384Z,96893.03
2023-03-17T02:47:04.614Z,96893.53
2023-03-17T02:48:06.225Z,96891.84
2023-03-17T02:49:08.368Z,96889.75
2023-03-17T02:50:22.487Z,96901.41
2023-03-17T02:51:24.079Z,96896.91
2023-03-17T02:52:26.072Z,96898.50
2023-03-17T02:53:27.691Z,96896.59
2023-03-17T02:54:29.222Z,96906.88
2023-03-17T02:55:31.763Z,96900.28
2023-03-17T02:56:33.750Z,96908.31
2023-03-17T02:57:35.431Z,96917.84
2023-03-17T02:58:36.956Z,96907.25
2023-03-17T02:59:38.484Z,96907.56
2023-03-17T03:00:40.778Z,96909.88
2023-03-17T03:01:42.397Z,96903.44
2023-03-17T03:02:44.048Z,96901.31
2023-03-17T03:03:45.965Z,96895.41
2023-03-17T03:04:47.808Z,96908.66
2023-03-17T03:05:49.384Z,96902.88
2023-03-17T03:06:51.144Z,96905.81
2023-03-17T03:07:52.826Z,96918.00
2023-03-17T03:08:54.422Z,96916.63
2023-03-17T03:09:56.007Z,96910.25
2023-03-17T03:10:57.602Z,96916.06
2023-03-17T03:11:59.194Z,96907.84
2023-03-17T03:13:01.695Z,96917.66
2023-03-17T03:14:03.587Z,96918.13
2023-03-17T03:15:05.694Z,96917.59
2023-03-17T03:16:07.817Z,96917.53
2023-03-17T03:17:09.702Z,96917.53
2023-03-17T03:18:12.410Z,96919.88
2023-03-17T03:19:14.082Z,96921.81
2023-03-17T03:20:16.306Z,96925.53
2023-03-17T03:21:18.636Z,96928.75
2023-03-17T03:22:20.172Z,96923.75
2023-03-17T03:23:21.732Z,96925.53
2023-03-17T03:24:23.265Z,96927.69
2023-03-17T03:25:24.815Z,96936.94
2023-03-17T03:26:27.294Z,96934.56
2023-03-17T03:27:28.848Z,96940.94
2023-03-17T03:28:30.804Z,96944.66
2023-03-17T03:29:32.462Z,96934.56
2023-03-17T03:30:36.222Z,96933.97
2023-03-17T03:31:37.807Z,96928.13
2023-03-17T03:32:39.359Z,96924.97
2023-03-17T03:33:41.685Z,96933.78
2023-03-17T03:34:43.252Z,96937.28
2023-03-17T03:35:45.775Z,96943.44
2023-03-17T03:36:47.377Z,96932.53
2023-03-17T03:37:48.909Z,96932.53
2023-03-17T03:38:50.958Z,96942.06
2023-03-17T03:39:53.013Z,96938.34
2023-03-17T03:40:54.752Z,96947.88
2023-03-17T03:41:59.148Z,96950.00
2023-03-17T03:43:07.467Z,96947.88
2023-03-17T03:44:14.534Z,96952.59
2023-03-17T03:45:16.313Z,96947.28
2023-03-17T03:46:17.951Z,96952.06
2023-03-17T03:47:19.646Z,96952.00
2023-03-17T03:48:21.822Z,96945.09
2023-03-17T03:49:23.484Z,96952.00
2023-03-17T03:50:25.104Z,96958.16
2023-03-17T03:51:27.083Z,96957.91
2023-03-17T03:52:28.634Z,96956.56
2023-03-17T03:53:30.577Z,96960.44
2023-03-17T03:54:32.120Z,96970.47
2023-03-17T03:55:33.883Z,96961.75
2023-03-17T03:56:35.652Z,96963.06
2023-03-17T03:57:37.264Z,96969.97
2023-03-17T03:58:38.790Z,96967.84
2023-03-17T03:59:40.369Z,96964.53
2023-03-17T04:00:41.916Z,96967.84
2023-03-17T04:01:43.424Z,96969.97
2023-03-17T04:02:47.643Z,96971.69
2023-03-17T04:03:49.150Z,96973.81
2023-03-17T04:04:50.791Z,96977.53
2023-03-17T04:05:52.620Z,96978.06
2023-03-17T04:06:54.161Z,96974.13
2023-03-17T04:07:55.676Z,96981.03
2023-03-17T04:08:58.446Z,96978.31
2023-03-17T04:10:00.190Z,96984.16
2023-03-17T04:11:01.729Z,96976.22
2023-03-17T04:12:03.745Z,96981.50
2023-03-17T04:13:05.321Z,96981.25
2023-03-17T04:14:06.927Z,96980.44
2023-03-17T04:15:09.840Z,96979.16
2023-03-17T04:16:11.748Z,96985.75
2023-03-17T04:17:14.752Z,96982.03
2023-03-17T04:18:16.911Z,96986.28
2023-03-17T04:19:18.572Z,96995.78
2023-03-17T04:20:21.088Z,96984.16
2023-03-17T04:21:22.578Z,96998.50
2023-03-17T04:22:24.306Z,96991.06
2023-03-17T04:23:25.947Z,96995.50
2023-03-17T04:24:28.001Z,96996.81
2023-03-17T04:25:29.583Z,96997.28
2023-03-17T04:26:32.157Z,96997.28
2023-03-17T04:27:34.287Z,96999.41
2023-03-17T04:28:35.850Z,97004.13
2023-03-17T04:29:37.525Z,97006.28
2023-03-17T04:30:39.194Z,97004.69
2023-03-17T04:31:41.473Z,97004.13
2023-03-17T04:32:44.071Z,97004.91
2023-03-17T04:33:45.654Z,96998.81
2023-03-17T04:34:47.227Z,96998.03
2023-03-17T04:35:48.804Z,97003.13
2023-03-17T04:36:50.493Z,97004.25
2023-03-17T04:37:52.128Z,97003.19
2023-03-17T04:38:53.699Z,97003.25
2023-03-17T04:39:55.968Z,97007.03
2023-03-17T04:40:57.514Z,96999.53
2023-03-17T04:41:59.105Z,97014.84
2023-03-17T04:43:03.321Z,97015.44
2023-03-17T04:44:05.569Z,97018.13
2023-03-17T04:45:09.810Z,97016.56
2023-03-17T04:46:11.811Z,97018.63
2023-03-17T04:47:13.411Z,97022.06
2023-03-17T04:48:14.988Z,97014.34
2023-03-17T04:49:16.839Z,97028.97
2023-03-17T04:50:18.436Z,97026.81
2023-03-17T04:51:20.246Z,97027.59
2023-03-17T04:52:21.783Z,97022.59
2023-03-17T04:53:23.334Z,97026.59
2023-03-17T04:54:25.226Z,97019.59
2023-03-17T04:55:27.639Z,97026.47
2023-03-17T04:56:31.627Z,97027.31
2023-03-17T04:57:33.544Z,97023.88
2023-03-17T04:58:35.231Z,97027.59
2023-03-17T04:59:36.796Z,97024.88
2023-03-17T05:00:39.054Z,97025.97
2023-03-17T05:01:41.071Z,97031.78
2023-03-17T05:02:42.642Z,97026.41
2023-03-17T05:03:45.399Z,97021.84
2023-03-17T05:04:47.834Z,97022.91
2023-03-17T05:05:50.699Z,97026.88
2023-03-17T05:06:52.452Z,97029.31
2023-03-17T05:07:53.964Z,97030.84
2023-03-17T05:08:55.569Z,97029.31
2023-03-17T05:09:57.913Z,97033.50
2023-03-17T05:10:59.486Z,97036.03
2023-03-17T05:12:01.090Z,97033.69
2023-03-17T05:13:02.840Z,97034.47
2023-03-17T05:14:04.417Z,97040.00
2023-03-17T05:15:06.557Z,97039.41
2023-03-17T05:16:09.233Z,97044.72
2023-03-17T05:17:10.967Z,97052.41
2023-03-17T05:18:12.646Z,97044.97
2023-03-17T05:19:14.546Z,97042.00
2023-03-17T05:20:17.130Z,97048.91
2023-03-17T05:21:18.681Z,97053.66
2023-03-17T05:22:20.641Z,97054.41
2023-03-17T05:23:23.056Z,97052.06
2023-03-17T05:24:24.876Z,97058.72
2023-03-17T05:25:26.593Z,97061.31
2023-03-17T05:26:28.443Z,97063.63
2023-03-17T05:27:31.403Z,97064.13
2023-03-17T05:28:33.022Z,97063.34
2023-03-17T05:29:34.580Z,97061.50
2023-03-17T05:30:39.020Z,97062.97
2023-03-17T05:31:40.572Z,97064.34
2023-03-17T05:32:42.202Z,97070.44
2023-03-17T05:33:43.785Z,97071.25
2023-03-17T05:34:46.360Z,97082.06
2023-03-17T05:35:47.939Z,97068.88
2023-03-17T05:36:50.471Z,97067.28
2023-03-17T05:37:52.602Z,97071.25
2023-03-17T05:38:54.303Z,97069.38
2023-03-17T05:39:55.974Z,97071.44
2023-03-17T05:40:57.955Z,97080.47
2023-03-17T05:41:59.474Z,97078.28
2023-03-17T05:43:01.721Z,97078.69
2023-03-17T05:44:03.344Z,97081.34
2023-03-17T05:45:06.022Z,97087.25
2023-03-17T05:46:07.640Z,97088.84
2023-03-17T05:47:09.327Z,97087.75
2023-03-17T05:48:12.397Z,97083.25
2023-03-17T05:49:14.024Z,97081.81
2023-03-17T05:50:15.908Z,97095.66
2023-03-17T05:51:17.617Z,97086.56
2023-03-17T05:52:19.423Z,97085.38
2023-03-17T05:53:21.083Z,97086.19
2023-03-17T05:54:23.130Z,97096.44
2023-03-17T05:55:24.730Z,97089.47
2023-03-17T05:56:33.322Z,97097.44
2023-03-17T05:57:35.468Z,97091.59
2023-03-17T05:58:37.051Z,97085.16
2023-03-17T05:59:38.668Z,97097.97
2023-03-17T06:00:40.857Z,97095.50
2023-03-17T06:01:42.467Z,97099.47
2023-03-17T06:02:44.086Z,97105.84
2023-03-17T06:03:45.833Z,97101.34
2023-03-17T06:04:47.631Z,97095.72
2023-03-17T06:05:49.262Z,97097.31
2023-03-17T06:06:50.850Z,97099.69
2023-03-17T06:07:56.257Z,97102.63
2023-03-17T06:08:58.166Z,97105.19
2023-03-17T06:10:00.471Z,97107.22
2023-03-17T06:11:02.650Z,97107.22
2023-03-17T06:12:04.898Z,97102.91
2023-03-17T06:13:06.433Z,97112.16
2023-03-17T06:14:09.238Z,97111.94
2023-03-17T06:15:10.960Z,97110.00
2023-03-17T06:16:13.101Z,97110.06
2023-03-17T06:17:14.773Z,97110.28
2023-03-17T06:18:16.422Z,97113.78
2023-03-17T06:19:17.994Z,97117.22
2023-03-17T06:20:19.806Z,97116.66
2023-03-17T06:21:21.919Z,97114.81
2023-03-17T06:22:23.481Z,97117.53
2023-03-17T06:23:25.077Z,97118.34
2023-03-17T06:24:26.692Z,97115.38
2023-03-17T06:25:28.347Z,97120.53
2023-03-17T06:26:29.973Z,97121.53
2023-03-17T06:27:31.616Z,97119.47
2023-03-17T06:28:33.321Z,97113.88
2023-03-17T06:29:34.840Z,97120.50
2023-03-17T06:30:40.409Z,97112.72
2023-03-17T06:31:42.303Z,97115.28
2023-03-17T06:32:44.183Z,97115.28
2023-03-17T06:33:45.763Z,97108.91
2023-03-17T06:34:47.510Z,97123.28
2023-03-17T06:35:49.157Z,97119.94
2023-03-17T06:36:51.018Z,97123.00
2023-03-17T06:37:52.542Z,97122.31
2023-03-17T06:38:54.134Z,97121.94
2023-03-17T06:39:56.893Z,97113.16
2023-03-17T06:40:58.473Z,97117.91
2023-03-17T06:42:00.033Z,97119.69
2023-03-17T06:43:02.067Z,97122.03
2023-03-17T06:44:05.417Z,97120.31
2023-03-17T06:45:09.325Z,97122.47
2023-03-17T06:46:11.157Z,97129.78
2023-03-17T06:47:13.514Z,97126.44
2023-03-17T06:48:15.059Z,97135.09
2023-03-17T06:49:17.132Z,97128.59
2023-03-17T06:50:19.009Z,97134.63
2023-03-17T06:51:20.699Z,97131.75
2023-03-17T06:52:22.465Z,97127.41
2023-03-17T06:53:24.076Z,97134.22
2023-03-17T06:54:25.929Z,97136.78
2023-03-17T06:55:27.516Z,97138.44
2023-03-17T06:56:30.453Z,97131.06
2023-03-17T06:57:32.499Z,97140.03
2023-03-17T06:58:34.091Z,97135.31
2023-03-17T06:59:36.026Z,97136.09
2023-03-17T07:00:40.147Z,97144.38
2023-03-17T07:01:41.655Z,97139.66
2023-03-17T07:02:43.269Z,97141.19
2023-03-17T07:03:45.257Z,97136.50
2023-03-17T07:04:46.997Z,97135.13
2023-03-17T07:05:48.981Z,97133.31
2023-03-17T07:06:51.609Z,97138.66
2023-03-17T07:07:53.150Z,97142.41
2023-03-17T07:08:54.875Z,97136.19
2023-03-17T07:09:56.533Z,97141.13
2023-03-17T07:10:59.027Z,97144.38
2023-03-17T07:12:04.983Z,97134.78
2023-03-17T07:13:08.438Z,97142.22
2023-03-17T07:14:10.034Z,97133.72
2023-03-17T07:15:12.613Z,97137.88
2023-03-17T07:16:15.195Z,97134.47
2023-03-17T07:17:16.955Z,97140.31
2023-03-17T07:18:19.132Z,97131.25
2023-03-17T07:19:20.722Z,97140.03
2023-03-17T07:20:22.267Z,97132.72
2023-03-17T07:21:23.845Z,97132.72
2023-03-17T07:22:25.392Z,97137.94
2023-03-17T07:23:27.096Z,97146.19
2023-03-17T07:24:28.727Z,97145.47
2023-03-17T07:25:30.806Z,97138.75
2023-03-17T07:26:33.304Z,97140.63
2023-03-17T07:27:35.010Z,97151.28
2023-03-17T07:28:36.637Z,97147.72
2023-03-17T07:29:39.053Z,97141.47
2023-03-17T07:30:43.835Z,97148.69
2023-03-17T07:31:45.708Z,97150.34
2023-03-17T07:32:47.780Z,97146.16
2023-03-17T07:33:49.336Z,97149.78
2023-03-17T07:34:50.910Z,97137.75
2023-03-17T07:35:54.169Z,97140.25
2023-03-17T07:36:55.747Z,97139.06
2023-03-17T07:37:57.352Z,97131.69
2023-03-17T07:38:59.066Z,97133.69
2023-03-17T07:40:01.506Z,97137.25
2023-03-17T07:41:04.723Z,97135.66
2023-03-17T07:42:07.007Z,97130.94
2023-03-17T07:43:08.777Z,97136.38
2023-03-17T07:44:11.486Z,97129.59
2023-03-17T07:45:13.579Z,97128.53
2023-03-17T07:46:15.145Z,97135.44
2023-03-17T07:47:16.848Z,97133.06
2023-03-17T07:48:18.962Z,97129.31
2023-03-17T07:49:34.031Z,97128.13
2023-03-17T07:50:42.541Z,97131.81
2023-03-17T07:51:44.643Z,97129.94
2023-03-17T07:52:46.429Z,97137.63
2023-03-17T07:53:50.179Z,97128.59
2023-03-17T07:54:52.191Z,97132.84
2023-03-17T07:55:54.383Z,97136.88
2023-03-17T07:56:56.336Z,97131.97
2023-03-17T07:57:58.085Z,97132.94
2023-03-17T07:59:00.033Z,97131.25
2023-03-17T08:00:01.660Z,97126.22
2023-03-17T08:01:05.086Z,97130.59
2023-03-17T08:02:06.760Z,97134.50
2023-03-17T08:03:10.706Z,97122.00
2023-03-17T08:04:13.322Z,97124.09
2023-03-17T08:05:14.950Z,97125.78
2023-03-17T08:06:16.661Z,97118.28
2023-03-17T08:07:18.452Z,97120.19
2023-03-17T08:08:22.473Z,97124.69
2023-03-17T08:09:24.560Z,97121.84
2023-03-17T08:10:26.376Z,97123.91
2023-03-17T08:11:29.469Z,97120.94
2023-03-17T08:12:31.873Z,97128.19
2023-03-17T08:13:34.168Z,97123.94
2023-03-17T08:14:36.009Z,97128.84
2023-03-17T08:15:38.392Z,97123.16
2023-03-17T08:16:40.132Z,97125.88
2023-03-17T08:17:41.996Z,97128.84
2023-03-17T08:18:43.705Z,97120.66
2023-03-17T08:19:45.346Z,97121.56
2023-03-17T08:20:46.902Z,97120.56
2023-03-17T08:21:48.516Z,97124.22
2023-03-17T08:22:50.106Z,97127.28
2023-03-17T08:23:51.694Z,97133.53
2023-03-17T08:24:53.791Z,97129.41
2023-03-17T08:25:59.199Z,97131.28
2023-03-17T08:27:01.159Z,97141.97
2023-03-17T08:28:04.542Z,97130.84
2023-03-17T08:29:06.316Z,97133.44
2023-03-17T08:30:08.505Z,97133.00
2023-03-17T08:31:21.109Z,97135.81
2023-03-17T08:32:23.016Z,97123.81
2023-03-17T08:33:24.521Z,97125.06
2023-03-17T08:34:26.408Z,97132.66
2023-03-17T08:35:28.109Z,97128.03
2023-03-17T08:36:29.928Z,97127.13
2023-03-17T08:37:31.604Z,97121.22
2023-03-17T08:38:33.671Z,97122.66
2023-03-17T08:39:35.328Z,97119.38
2023-03-17T08:40:40.107Z,97120.66
2023-03-17T08:41:42.161Z,97119.06
2023-03-17T08:42:45.305Z,97124.56
2023-03-17T08:43:47.240Z,97123.03
2023-03-17T08:44:48.947Z,97122.69
2023-03-17T08:45:50.469Z,97122.06
2023-03-17T08:46:57.698Z,97118.75
2023-03-17T08:48:00.392Z,97121.75
2023-03-17T08:49:03.297Z,97118.78
2023-03-17T08:50:07.641Z,97116.09
2023-03-17T08:51:09.646Z,97125.72
2023-03-17T08:52:11.291Z,97124.75
2023-03-17T08:53:14.268Z,97116.41
2023-03-17T08:54:16.016Z,97119.25
2023-03-17T08:55:19.476Z,97113.09
2023-03-17T08:56:21.770Z,97122.84
2023-03-17T08:57:23.516Z,97104.88
2023-03-17T08:58:25.174Z,97119.38
2023-03-17T08:59:27.045Z,97120.19
2023-03-17T09:00:28.656Z,97125.72
2023-03-17T09:01:31.484Z,97120.81
2023-03-17T09:02:33.050Z,97110.13
2023-03-17T09:03:34.764Z,97108.53
2023-03-17T09:04:39.907Z,97103.97
2023-03-17T09:05:42.751Z,97117.06
2023-03-17T09:07:01.846Z,97115.31
2023-03-17T09:08:04.779Z,97103.19
2023-03-17T09:09:06.924Z,97117.97
2023-03-17T09:10:10.930Z,97113.41
2023-03-17T09:11:17.750Z,97106.44
2023-03-17T09:12:19.302Z,97102.31
2023-03-17T09:13:21.962Z,97096.47
2023-03-17T09:14:24.969Z,97098.81
2023-03-17T09:15:26.669Z,97103.69
2023-03-17T09:16:28.765Z,97093.44
2023-03-17T09:17:30.424Z,97099.53
2023-03-17T09:18:33.184Z,97104.28
2023-03-17T09:19:34.812Z,97101.94
2023-03-17T09:20:36.382Z,97089.16
2023-03-17T09:21:38.032Z,97080.97
2023-03-17T09:22:39.605Z,97097.00
2023-03-17T09:23:41.628Z,97094.03
2023-03-17T09:24:43.373Z,97088.81
2023-03-17T09:25:44.995Z,97097.91
2023-03-17T09:26:46.944Z,97096.81
2023-03-17T09:27:48.584Z,97093.34
2023-03-17T09:28:50.172Z,97098.41
2023-03-17T09:29:51.891Z,97102.31
2023-03-17T09:30:58.543Z,97091.25
2023-03-17T09:32:00.754Z,97081.09
2023-03-17T09:33:02.401Z,97079.16
2023-03-17T09:34:05.455Z,97087.66
2023-03-17T09:35:07.168Z,97085.88
2023-03-17T09:36:10.421Z,97088.81
2023-03-17T09:37:12.101Z,97080.56
2023-03-17T09:38:13.732Z,97081.34
2023-03-17T09:39:16.072Z,97095.00
2023-03-17T09:40:21.165Z,97082.69
2023-03-17T09:41:57.183Z,97086.50
2023-03-17T09:43:37.124Z,97083.22
2023-03-17T09:45:12.307Z,97092.63
2023-03-17T09:46:28.177Z,97085.53
2023-03-17T09:47:53.689Z,97085.03
2023-03-17T09:49:09.330Z,97084.66
2023-03-17T09:50:16.575Z,97085.84
2023-03-17T09:51:19.593Z,97080.94
2023-03-17T09:52:30.573Z,97075.03
2023-03-17T09:53:48.037Z,97081.19
2023-03-17T09:54:50.136Z,97083.38
2023-03-17T09:55:55.544Z,97076.53
2023-03-17T09:57:06.064Z,97077.03
2023-03-17T09:58:11.526Z,97077.72
2023-03-17T09:59:37.008Z,97076.16
2023-03-17T10:00:39.474Z,97070.34
2023-03-17T10:01:43.418Z,97076.44
2023-03-17T10:02:46.221Z,97069.03
2023-03-17T10:03:47.997Z,97075.31
2023-03-17T10:04:49.941Z,97064.50
2023-03-17T10:05:52.010Z,97067.28
2023-03-17T10:07:02.273Z,97067.19
2023-03-17T10:08:31.774Z,97073.63
2023-03-17T10:09:51.672Z,97070.53
2023-03-17T10:10:53.665Z,97071.34
2023-03-17T10:12:04.315Z,97072.16
2023-03-17T10:13:15.455Z,97072.56
2023-03-17T10:14:27.216Z,97062.97
2023-03-17T10:15:54.185Z,97058.81
2023-03-17T10:17:21.257Z,97058.03
2023-03-17T10:18:26.552Z,97057.25
2023-03-17T10:19:47.153Z,97055.16
2023-03-17T10:21:03.520Z,97055.78
2023-03-17T10:22:27.122Z,97058.16
2023-03-17T10:23:35.717Z,97059.34
2023-03-17T10:24:43.651Z,97062.00
2023-03-17T10:25:45.301Z,97045.88
2023-03-17T10:26:50.301Z,97064.03
2023-03-17T10:28:02.557Z,97053.72
2023-03-17T10:29:12.554Z,97051.94
2023-03-17T10:30:17.524Z,97054.97
2023-03-17T10:31:28.632Z,97038.88
2023-03-17T10:32:33.164Z,97056.00
2023-03-17T10:33:34.718Z,97047.22
2023-03-17T10:34:38.213Z,97051.16
2023-03-17T10:35:40.585Z,97046.72
2023-03-17T10:36:51.483Z,97038.88
2023-03-17T10:38:04.417Z,97042.00
2023-03-17T10:39:18.793Z,97035.56
2023-03-17T10:40:24.498Z,97031.34
2023-03-17T10:41:38.687Z,97035.53
2023-03-17T10:42:53.364Z,97032.72
2023-03-17T10:43:55.021Z,97025.09
2023-03-17T10:44:58.730Z,97027.97
2023-03-17T10:46:05.835Z,97032.47
2023-03-17T10:47:20.259Z,97025.56
2023-03-17T10:48:21.848Z,97032.72
2023-03-17T10:49:24.500Z,97023.56
2023-03-17T10:50:30.150Z,97023.69
2023-03-17T10:51:35.481Z,97016.19
2023-03-17T10:52:40.880Z,97019.66
2023-03-17T10:53:45.324Z,97016.66
2023-03-17T10:54:53.334Z,97009.06
2023-03-17T10:56:01.059Z,97001.00
2023-03-17T10:57:07.139Z,96999.22
2023-03-17T10:58:22.568Z,96995.91
2023-03-17T10:59:33.139Z,97002.34
2023-03-17T11:00:38.501Z,96987.16
2023-03-17T11:01:44.015Z,96981.56
2023-03-17T11:02:57.259Z,96982.13
2023-03-17T11:04:02.467Z,96971.47
2023-03-17T11:05:09.599Z,96969.91
2023-03-17T11:06:14.421Z,96970.59
2023-03-17T11:07:21.748Z,96977.09
2023-03-17T11:08:24.079Z,96965.69
2023-03-17T11:09:29.246Z,96958.59
2023-03-17T11:10:37.044Z,96952.41
2023-03-17T11:11:47.282Z,96960.56
2023-03-17T11:12:54.814Z,96940.16
2023-03-17T11:14:04.842Z,96941.91
2023-03-17T11:15:20.070Z,96940.63
2023-03-17T11:16:24.083Z,96948.94
2023-03-17T11:17:45.560Z,96932.06
2023-03-17T11:18:49.163Z,96932.56
2023-03-17T11:20:32.959Z,96927.69
2023-03-17T11:21:49.581Z,96917.06
2023-03-17T11:23:08.743Z,96929.25
2023-03-17T11:24:20.268Z,96941.31
2023-03-17T11:25:23.518Z,96946.00
2023-03-17T11:26:52.246Z,96945.34
2023-03-17T11:28:02.472Z,96936.28
2023-03-17T11:29:20.744Z,96941.22
2023-03-17T11:30:32.398Z,96942.34
2023-03-17T11:32:00.804Z,96921.25
2023-03-17T11:33:21.841Z,96900.41
2023-03-17T11:34:23.471Z,96917.44
2023-03-17T11:35:38.366Z,96949.91
2023-03-17T11:36:51.546Z,96954.81
2023-03-17T11:38:20.594Z,96953.19
2023-03-17T11:39:32.292Z,96957.50
2023-03-17T11:40:47.637Z,96947.47
2023-03-17T11:42:06.962Z,96933.84
2023-03-17T11:43:34.621Z,96933.19
2023-03-17T11:44:39.044Z,96930.53
2023-03-17T11:45:52.528Z,96936.91
2023-03-17T11:47:15.797Z,96930.31
2023-03-17T11:48:45.855Z,96931.94
2023-03-17T11:50:13.853Z,96934.75
2023-03-17T11:51:18.242Z,96927.84
2023-03-17T11:52:32.653Z,96923.47
2023-03-17T11:53:56.968Z,96934.13
2023-03-17T11:54:59.690Z,96932.50
2023-03-17T11:56:06.930Z,96931.81
2023-03-17T11:57:17.271Z,96938.22
2023-03-17T11:58:41.293Z,96931.72
2023-03-17T11:59:59.550Z,96927.13
2023-03-17T12:01:09.143Z,96927.25
2023-03-17T12:02:40.847Z,96925.84
2023-03-17T12:03:55.312Z,96918.44
2023-03-17T12:05:02.462Z,96919.66
2023-03-17T12:06:11.245Z,96905.63
2023-03-17T12:07:27.003Z,96925.13
2023-03-17T12:08:45.973Z,96924.75
2023-03-17T12:10:15.618Z,96919.28
2023-03-17T12:11:24.237Z,96931.16
2023-03-17T12:12:38.140Z,96909.97
2023-03-17T12:13:48.165Z,96927.00
2023-03-17T12:14:52.378Z,96921.25
2023-03-17T12:16:04.461Z,96919.44
2023-03-17T12:17:34.941Z,96903.41
2023-03-17T12:18:40.065Z,96913.03
2023-03-17T12:20:16.561Z,96910.41
2023-03-17T12:21:36.917Z,96916.50
2023-03-17T12:22:47.094Z,96923.63
2023-03-17T12:24:01.919Z,96920.78
2023-03-17T12:25:13.042Z,96923.00
2023-03-17T12:26:19.110Z,96922.28
2023-03-17T12:27:23.644Z,96903.34
2023-03-17T12:28:38.824Z,96910.78
2023-03-17T12:29:50.137Z,96920.69
2023-03-17T12:31:12.950Z,96917.31
2023-03-17T12:32:49.938Z,96915.50
2023-03-17T12:34:06.514Z,96911.03
2023-03-17T12:35:32.575Z,96913.38
2023-03-17T12:36:39.957Z,96914.84
2023-03-17T12:37:41.989Z,96905.22
2023-03-17T12:38:49.520Z,96923.34
2023-03-17T12:40:06.768Z,96903.63